Airport View

Enter AWOS ICAO identifier for current METAR.

ex. KFNL

KTBN 191911Z AUTO 23004KT 10SM FEW018 SCT023 BKN030 BKN038 OVC180 24/19 A2972 RMK AO2 SLPNO $

19 Jun 2019 19:22

Frequency: 118.7

Phone: 573-596-6959

Other Area AWOS: KLBO - KAIZ - KVIH - KOZS

TAF KCOU 191739Z 1918/2018 25009KT 6SM -RA VCTS OVC030CB TEMPO 1918/1921 4SM SHRA BR OVC015 FM192200 28009KT P6SM VCSH OVC030 FM200400 31006KT P6SM OVC015 FM200700 31005KT 4SM BR OVC006 FM201600 VRB04KT P6SM SCT015